sensor_id;sensor_type;location;lat;lon;timestamp;P1;durP1;ratioP1;P2;durP2;ratioP2
5217;SDS011;26539;51.064;6.346;2022-12-05T00:01:36;36.23;;;20.27;;
5217;SDS011;26539;51.064;6.346;2022-12-05T00:04:10;29.48;;;17.30;;
5217;SDS011;26539;51.064;6.346;2022-12-05T00:06:45;35.97;;;19.27;;
5217;SDS011;26539;51.064;6.346;2022-12-05T00:09:15;38.35;;;19.02;;
5217;SDS011;26539;51.064;6.346;2022-12-05T00:11:44;36.10;;;20.23;;
5217;SDS011;26539;51.064;6.346;2022-12-05T00:14:17;37.30;;;19.30;;
5217;SDS011;26539;51.064;6.346;2022-12-05T00:16:45;33.13;;;18.50;;
5217;SDS011;26539;51.064;6.346;2022-12-05T00:19:13;35.70;;;19.73;;
5217;SDS011;26539;51.064;6.346;2022-12-05T00:21:42;31.48;;;18.42;;
5217;SDS011;26539;51.064;6.346;2022-12-05T00:24:19;34.85;;;18.90;;
5217;SDS011;26539;51.064;6.346;2022-12-05T00:26:45;32.00;;;18.85;;
5217;SDS011;26539;51.064;6.346;2022-12-05T00:29:11;35.37;;;19.90;;
5217;SDS011;26539;51.064;6.346;2022-12-05T00:31:37;32.20;;;17.60;;
5217;SDS011;26539;51.064;6.346;2022-12-05T00:34:02;35.93;;;19.90;;
5217;SDS011;26539;51.064;6.346;2022-12-05T00:36:30;32.77;;;19.17;;
5217;SDS011;26539;51.064;6.346;2022-12-05T00:38:57;34.78;;;20.40;;
5217;SDS011;26539;51.064;6.346;2022-12-05T00:41:25;34.83;;;20.08;;
5217;SDS011;26539;51.064;6.346;2022-12-05T00:43:51;39.25;;;19.17;;
5217;SDS011;26539;51.064;6.346;2022-12-05T00:46:19;33.75;;;18.50;;
5217;SDS011;26539;51.064;6.346;2022-12-05T00:48:46;31.33;;;18.00;;
5217;SDS011;26539;51.064;6.346;2022-12-05T00:51:20;32.20;;;19.30;;
5217;SDS011;26539;51.064;6.346;2022-12-05T00:53:48;38.58;;;21.33;;
5217;SDS011;26539;51.064;6.346;2022-12-05T00:56:15;35.70;;;20.63;;
5217;SDS011;26539;51.064;6.346;2022-12-05T00:58:43;32.15;;;19.17;;
5217;SDS011;26539;51.064;6.346;2022-12-05T01:01:10;35.97;;;19.27;;
5217;SDS011;26539;51.064;6.346;2022-12-05T01:03:38;35.10;;;19.80;;
5217;SDS011;26539;51.064;6.346;2022-12-05T01:06:04;38.10;;;19.45;;
5217;SDS011;26539;51.064;6.346;2022-12-05T01:08:30;37.43;;;19.73;;
5217;SDS011;26539;51.064;6.346;2022-12-05T01:10:57;31.52;;;18.90;;
5217;SDS011;26539;51.064;6.346;2022-12-05T01:13:24;36.53;;;19.57;;
5217;SDS011;26539;51.064;6.346;2022-12-05T01:15:50;34.28;;;20.55;;
5217;SDS011;26539;51.064;6.346;2022-12-05T01:18:16;30.67;;;18.50;;
5217;SDS011;26539;51.064;6.346;2022-12-05T01:20:42;37.25;;;18.27;;
5217;SDS011;26539;51.064;6.346;2022-12-05T01:23:08;31.50;;;17.40;;
5217;SDS011;26539;51.064;6.346;2022-12-05T01:25:34;31.80;;;19.03;;
5217;SDS011;26539;51.064;6.346;2022-12-05T01:28:04;37.10;;;20.17;;
5217;SDS011;26539;51.064;6.346;2022-12-05T01:30:29;35.70;;;19.60;;
5217;SDS011;26539;51.064;6.346;2022-12-05T01:32:55;33.20;;;19.83;;
5217;SDS011;26539;51.064;6.346;2022-12-05T01:35:20;30.03;;;19.57;;
5217;SDS011;26539;51.064;6.346;2022-12-05T01:37:46;32.50;;;18.53;;
5217;SDS011;26539;51.064;6.346;2022-12-05T01:40:11;35.47;;;18.67;;
5217;SDS011;26539;51.064;6.346;2022-12-05T01:42:38;40.00;;;19.80;;
5217;SDS011;26539;51.064;6.346;2022-12-05T01:45:14;37.78;;;18.55;;
5217;SDS011;26539;51.064;6.346;2022-12-05T01:47:41;34.53;;;19.80;;
5217;SDS011;26539;51.064;6.346;2022-12-05T01:50:08;30.17;;;18.92;;
5217;SDS011;26539;51.064;6.346;2022-12-05T01:52:34;37.95;;;19.60;;
5217;SDS011;26539;51.064;6.346;2022-12-05T01:55:03;32.75;;;19.40;;
5217;SDS011;26539;51.064;6.346;2022-12-05T01:57:33;30.92;;;19.83;;
5217;SDS011;26539;51.064;6.346;2022-12-05T02:00:04;40.07;;;19.90;;
5217;SDS011;26539;51.064;6.346;2022-12-05T02:02:35;37.15;;;19.48;;
5217;SDS011;26539;51.064;6.346;2022-12-05T02:05:17;35.05;;;21.02;;
5217;SDS011;26539;51.064;6.346;2022-12-05T02:07:54;32.65;;;20.60;;
5217;SDS011;26539;51.064;6.346;2022-12-05T02:10:21;37.30;;;20.73;;
5217;SDS011;26539;51.064;6.346;2022-12-05T02:12:48;41.63;;;21.05;;
5217;SDS011;26539;51.064;6.346;2022-12-05T02:15:31;37.60;;;20.95;;
5217;SDS011;26539;51.064;6.346;2022-12-05T02:18:20;34.40;;;19.02;;
5217;SDS011;26539;51.064;6.346;2022-12-05T02:34:02;30.98;;;18.45;;
5217;SDS011;26539;51.064;6.346;2022-12-05T02:36:54;36.40;;;20.55;;
5217;SDS011;26539;51.064;6.346;2022-12-05T02:39:44;38.40;;;20.33;;
5217;SDS011;26539;51.064;6.346;2022-12-05T02:42:40;41.33;;;18.95;;
5217;SDS011;26539;51.064;6.346;2022-12-05T02:45:14;37.10;;;20.83;;
5217;SDS011;26539;51.064;6.346;2022-12-05T02:47:43;36.78;;;19.45;;
5217;SDS011;26539;51.064;6.346;2022-12-05T02:50:11;39.78;;;20.10;;
5217;SDS011;26539;51.064;6.346;2022-12-05T02:52:41;37.33;;;21.77;;
5217;SDS011;26539;51.064;6.346;2022-12-05T02:55:09;37.85;;;20.27;;
5217;SDS011;26539;51.064;6.346;2022-12-05T02:57:35;34.72;;;19.02;;
5217;SDS011;26539;51.064;6.346;2022-12-05T03:00:02;34.53;;;19.40;;
5217;SDS011;26539;51.064;6.346;2022-12-05T03:02:30;36.22;;;19.70;;
5217;SDS011;26539;51.064;6.346;2022-12-05T03:04:57;38.55;;;20.75;;
5217;SDS011;26539;51.064;6.346;2022-12-05T03:07:32;33.50;;;20.00;;
5217;SDS011;26539;51.064;6.346;2022-12-05T03:10:01;34.30;;;18.15;;
5217;SDS011;26539;51.064;6.346;2022-12-05T03:12:32;31.67;;;18.98;;
5217;SDS011;26539;51.064;6.346;2022-12-05T03:17:40;39.67;;;20.10;;
5217;SDS011;26539;51.064;6.346;2022-12-05T03:20:19;41.00;;;19.88;;
5217;SDS011;26539;51.064;6.346;2022-12-05T03:22:55;36.55;;;21.00;;
5217;SDS011;26539;51.064;6.346;2022-12-05T03:25:32;29.33;;;17.52;;
5217;SDS011;26539;51.064;6.346;2022-12-05T03:30:36;34.55;;;20.50;;
5217;SDS011;26539;51.064;6.346;2022-12-05T03:38:28;32.25;;;19.30;;
5217;SDS011;26539;51.064;6.346;2022-12-05T03:41:18;34.05;;;19.45;;
5217;SDS011;26539;51.064;6.346;2022-12-05T03:46:43;37.08;;;19.83;;
5217;SDS011;26539;51.064;6.346;2022-12-05T03:49:34;38.60;;;21.63;;
5217;SDS011;26539;51.064;6.346;2022-12-05T03:54:34;39.13;;;21.52;;
5217;SDS011;26539;51.064;6.346;2022-12-05T03:57:10;40.38;;;22.52;;
5217;SDS011;26539;51.064;6.346;2022-12-05T03:59:45;33.08;;;19.42;;
5217;SDS011;26539;51.064;6.346;2022-12-05T04:02:23;35.45;;;20.48;;
5217;SDS011;26539;51.064;6.346;2022-12-05T04:04:59;40.55;;;21.25;;
5217;SDS011;26539;51.064;6.346;2022-12-05T04:07:30;37.47;;;22.02;;
5217;SDS011;26539;51.064;6.346;2022-12-05T04:10:00;35.33;;;20.15;;
5217;SDS011;26539;51.064;6.346;2022-12-05T04:12:30;28.60;;;19.27;;
5217;SDS011;26539;51.064;6.346;2022-12-05T04:15:01;34.35;;;20.13;;
5217;SDS011;26539;51.064;6.346;2022-12-05T04:17:38;40.65;;;21.73;;
5217;SDS011;26539;51.064;6.346;2022-12-05T04:20:15;42.92;;;23.92;;
5217;SDS011;26539;51.064;6.346;2022-12-05T04:23:20;37.05;;;21.10;;
5217;SDS011;26539;51.064;6.346;2022-12-05T04:26:01;35.28;;;20.80;;
5217;SDS011;26539;51.064;6.346;2022-12-05T04:28:47;36.55;;;21.25;;
5217;SDS011;26539;51.064;6.346;2022-12-05T04:31:23;46.30;;;27.90;;
5217;SDS011;26539;51.064;6.346;2022-12-05T04:33:52;58.50;;;28.73;;
5217;SDS011;26539;51.064;6.346;2022-12-05T04:36:21;47.53;;;26.67;;
5217;SDS011;26539;51.064;6.346;2022-12-05T04:38:57;56.47;;;27.13;;
5217;SDS011;26539;51.064;6.346;2022-12-05T04:41:36;44.70;;;24.00;;
5217;SDS011;26539;51.064;6.346;2022-12-05T04:44:06;38.72;;;22.40;;
5217;SDS011;26539;51.064;6.346;2022-12-05T04:46:34;37.47;;;20.23;;
5217;SDS011;26539;51.064;6.346;2022-12-05T04:49:02;41.13;;;22.08;;
5217;SDS011;26539;51.064;6.346;2022-12-05T04:51:32;36.28;;;21.25;;
5217;SDS011;26539;51.064;6.346;2022-12-05T04:54:00;33.78;;;19.27;;
5217;SDS011;26539;51.064;6.346;2022-12-05T04:56:33;35.95;;;21.33;;
5217;SDS011;26539;51.064;6.346;2022-12-05T04:59:01;37.40;;;20.55;;
5217;SDS011;26539;51.064;6.346;2022-12-05T05:01:29;33.70;;;21.57;;
5217;SDS011;26539;51.064;6.346;2022-12-05T05:06:37;36.17;;;20.08;;
5217;SDS011;26539;51.064;6.346;2022-12-05T05:09:04;38.40;;;19.60;;
5217;SDS011;26539;51.064;6.346;2022-12-05T05:11:33;32.33;;;19.10;;
5217;SDS011;26539;51.064;6.346;2022-12-05T05:14:00;32.03;;;20.70;;
5217;SDS011;26539;51.064;6.346;2022-12-05T05:16:27;37.55;;;20.65;;
5217;SDS011;26539;51.064;6.346;2022-12-05T05:18:59;37.55;;;19.52;;
5217;SDS011;26539;51.064;6.346;2022-12-05T05:21:26;38.08;;;20.20;;
5217;SDS011;26539;51.064;6.346;2022-12-05T05:23:56;33.45;;;19.92;;
5217;SDS011;26539;51.064;6.346;2022-12-05T05:26:22;33.17;;;19.48;;
5217;SDS011;26539;51.064;6.346;2022-12-05T05:28:49;37.15;;;19.73;;
5217;SDS011;26539;51.064;6.346;2022-12-05T05:31:16;37.10;;;21.00;;
5217;SDS011;26539;51.064;6.346;2022-12-05T05:33:43;33.35;;;19.52;;
5217;SDS011;26539;51.064;6.346;2022-12-05T05:36:12;33.65;;;20.52;;
5217;SDS011;26539;51.064;6.346;2022-12-05T05:38:39;34.30;;;20.05;;
5217;SDS011;26539;51.064;6.346;2022-12-05T05:41:10;30.75;;;18.35;;
5217;SDS011;26539;51.064;6.346;2022-12-05T05:43:38;32.80;;;19.05;;
5217;SDS011;26539;51.064;6.346;2022-12-05T05:46:04;31.02;;;18.73;;
5217;SDS011;26539;51.064;6.346;2022-12-05T05:48:29;35.17;;;19.50;;
5217;SDS011;26539;51.064;6.346;2022-12-05T05:50:57;31.20;;;17.67;;
5217;SDS011;26539;51.064;6.346;2022-12-05T05:53:23;32.72;;;19.45;;
5217;SDS011;26539;51.064;6.346;2022-12-05T05:55:49;33.43;;;19.33;;
5217;SDS011;26539;51.064;6.346;2022-12-05T05:58:14;33.77;;;20.43;;
5217;SDS011;26539;51.064;6.346;2022-12-05T06:00:40;32.03;;;19.13;;
5217;SDS011;26539;51.064;6.346;2022-12-05T06:03:05;32.90;;;20.70;;
5217;SDS011;26539;51.064;6.346;2022-12-05T06:05:32;33.25;;;20.08;;
5217;SDS011;26539;51.064;6.346;2022-12-05T06:07:57;31.50;;;18.17;;
5217;SDS011;26539;51.064;6.346;2022-12-05T06:10:23;30.73;;;18.87;;
5217;SDS011;26539;51.064;6.346;2022-12-05T06:12:52;39.73;;;19.17;;
5217;SDS011;26539;51.064;6.346;2022-12-05T06:15:17;26.65;;;16.98;;
5217;SDS011;26539;51.064;6.346;2022-12-05T06:17:43;33.90;;;19.50;;
5217;SDS011;26539;51.064;6.346;2022-12-05T06:20:08;34.10;;;20.07;;
5217;SDS011;26539;51.064;6.346;2022-12-05T06:22:34;26.60;;;18.00;;
5217;SDS011;26539;51.064;6.346;2022-12-05T06:25:00;28.43;;;18.60;;
5217;SDS011;26539;51.064;6.346;2022-12-05T06:27:27;30.00;;;17.40;;
5217;SDS011;26539;51.064;6.346;2022-12-05T06:29:53;31.52;;;19.35;;
5217;SDS011;26539;51.064;6.346;2022-12-05T06:32:19;28.87;;;19.00;;
5217;SDS011;26539;51.064;6.346;2022-12-05T06:34:44;35.30;;;21.23;;
5217;SDS011;26539;51.064;6.346;2022-12-05T06:37:10;30.90;;;19.30;;
5217;SDS011;26539;51.064;6.346;2022-12-05T06:39:35;32.77;;;19.40;;
5217;SDS011;26539;51.064;6.346;2022-12-05T06:42:01;37.60;;;21.57;;
5217;SDS011;26539;51.064;6.346;2022-12-05T06:44:26;33.00;;;18.60;;
5217;SDS011;26539;51.064;6.346;2022-12-05T06:46:53;31.63;;;19.05;;
5217;SDS011;26539;51.064;6.346;2022-12-05T06:49:19;28.90;;;17.63;;
5217;SDS011;26539;51.064;6.346;2022-12-05T06:51:46;33.00;;;20.08;;
5217;SDS011;26539;51.064;6.346;2022-12-05T06:54:15;35.27;;;18.83;;
5217;SDS011;26539;51.064;6.346;2022-12-05T06:56:40;28.98;;;18.08;;
5217;SDS011;26539;51.064;6.346;2022-12-05T06:59:06;33.70;;;19.27;;
5217;SDS011;26539;51.064;6.346;2022-12-05T07:01:31;32.57;;;19.53;;
5217;SDS011;26539;51.064;6.346;2022-12-05T07:04:23;27.98;;;17.95;;
5217;SDS011;26539;51.064;6.346;2022-12-05T07:06:48;31.73;;;18.98;;
5217;SDS011;26539;51.064;6.346;2022-12-05T07:09:15;32.80;;;18.50;;
5217;SDS011;26539;51.064;6.346;2022-12-05T07:11:42;29.02;;;17.90;;
5217;SDS011;26539;51.064;6.346;2022-12-05T07:14:13;31.52;;;17.63;;
5217;SDS011;26539;51.064;6.346;2022-12-05T07:16:39;34.20;;;19.60;;
5217;SDS011;26539;51.064;6.346;2022-12-05T07:19:04;29.67;;;19.57;;
5217;SDS011;26539;51.064;6.346;2022-12-05T07:21:30;32.20;;;19.10;;
5217;SDS011;26539;51.064;6.346;2022-12-05T07:23:55;36.33;;;20.53;;
5217;SDS011;26539;51.064;6.346;2022-12-05T07:26:21;34.70;;;19.67;;
5217;SDS011;26539;51.064;6.346;2022-12-05T07:28:48;35.08;;;18.85;;
5217;SDS011;26539;51.064;6.346;2022-12-05T07:31:16;32.58;;;18.63;;
5217;SDS011;26539;51.064;6.346;2022-12-05T07:33:44;36.08;;;18.63;;
5217;SDS011;26539;51.064;6.346;2022-12-05T07:36:10;30.00;;;18.20;;
5217;SDS011;26539;51.064;6.346;2022-12-05T07:38:37;28.15;;;17.67;;
5217;SDS011;26539;51.064;6.346;2022-12-05T07:41:14;31.58;;;19.02;;
5217;SDS011;26539;51.064;6.346;2022-12-05T07:43:43;31.05;;;18.90;;
5217;SDS011;26539;51.064;6.346;2022-12-05T07:46:09;30.00;;;18.73;;
5217;SDS011;26539;51.064;6.346;2022-12-05T07:48:35;30.20;;;17.45;;
5217;SDS011;26539;51.064;6.346;2022-12-05T07:51:01;30.83;;;19.60;;
5217;SDS011;26539;51.064;6.346;2022-12-05T07:53:29;30.75;;;18.90;;
5217;SDS011;26539;51.064;6.346;2022-12-05T07:55:57;29.25;;;18.90;;
5217;SDS011;26539;51.064;6.346;2022-12-05T07:58:24;28.85;;;17.83;;
5217;SDS011;26539;51.064;6.346;2022-12-05T08:00:49;31.67;;;19.50;;
5217;SDS011;26539;51.064;6.346;2022-12-05T08:03:15;28.20;;;17.40;;
5217;SDS011;26539;51.064;6.346;2022-12-05T08:05:40;30.33;;;19.13;;
5217;SDS011;26539;51.064;6.346;2022-12-05T08:08:06;25.83;;;17.23;;
5217;SDS011;26539;51.064;6.346;2022-12-05T08:10:32;26.93;;;18.60;;
5217;SDS011;26539;51.064;6.346;2022-12-05T08:12:58;25.98;;;17.50;;
5217;SDS011;26539;51.064;6.346;2022-12-05T08:15:23;28.53;;;16.17;;
5217;SDS011;26539;51.064;6.346;2022-12-05T08:17:49;24.80;;;17.00;;
5217;SDS011;26539;51.064;6.346;2022-12-05T08:20:14;25.10;;;16.90;;
5217;SDS011;26539;51.064;6.346;2022-12-05T08:22:40;26.67;;;17.00;;
5217;SDS011;26539;51.064;6.346;2022-12-05T08:25:06;29.40;;;16.60;;
5217;SDS011;26539;51.064;6.346;2022-12-05T08:27:31;25.90;;;16.80;;
5217;SDS011;26539;51.064;6.346;2022-12-05T08:29:57;29.17;;;16.37;;
5217;SDS011;26539;51.064;6.346;2022-12-05T08:32:22;30.57;;;18.63;;
5217;SDS011;26539;51.064;6.346;2022-12-05T08:34:48;30.10;;;17.93;;
5217;SDS011;26539;51.064;6.346;2022-12-05T08:37:13;31.57;;;16.87;;
5217;SDS011;26539;51.064;6.346;2022-12-05T08:39:39;37.10;;;18.40;;
5217;SDS011;26539;51.064;6.346;2022-12-05T08:42:04;29.93;;;17.80;;
5217;SDS011;26539;51.064;6.346;2022-12-05T08:44:30;30.57;;;17.93;;
5217;SDS011;26539;51.064;6.346;2022-12-05T08:46:55;31.37;;;17.97;;
5217;SDS011;26539;51.064;6.346;2022-12-05T08:49:21;36.13;;;19.17;;
5217;SDS011;26539;51.064;6.346;2022-12-05T08:51:46;31.03;;;17.70;;
5217;SDS011;26539;51.064;6.346;2022-12-05T08:54:12;27.37;;;17.93;;
5217;SDS011;26539;51.064;6.346;2022-12-05T08:56:38;27.93;;;17.30;;
5217;SDS011;26539;51.064;6.346;2022-12-05T08:59:03;31.13;;;19.57;;
5217;SDS011;26539;51.064;6.346;2022-12-05T09:01:29;32.93;;;19.67;;
5217;SDS011;26539;51.064;6.346;2022-12-05T09:03:59;34.67;;;18.58;;
5217;SDS011;26539;51.064;6.346;2022-12-05T09:06:26;31.00;;;18.95;;
5217;SDS011;26539;51.064;6.346;2022-12-05T09:08:54;29.02;;;18.27;;
5217;SDS011;26539;51.064;6.346;2022-12-05T09:11:22;29.38;;;18.63;;
5217;SDS011;26539;51.064;6.346;2022-12-05T09:13:52;31.75;;;19.08;;
5217;SDS011;26539;51.064;6.346;2022-12-05T09:16:20;26.02;;;18.90;;
5217;SDS011;26539;51.064;6.346;2022-12-05T09:18:48;31.40;;;18.80;;
5217;SDS011;26539;51.064;6.346;2022-12-05T09:21:15;33.80;;;18.55;;
5217;SDS011;26539;51.064;6.346;2022-12-05T09:23:42;30.08;;;17.80;;
5217;SDS011;26539;51.064;6.346;2022-12-05T09:26:10;29.35;;;18.05;;
5217;SDS011;26539;51.064;6.346;2022-12-05T09:28:37;29.13;;;18.15;;
5217;SDS011;26539;51.064;6.346;2022-12-05T09:31:04;29.00;;;19.13;;
5217;SDS011;26539;51.064;6.346;2022-12-05T09:33:33;32.10;;;19.60;;
5217;SDS011;26539;51.064;6.346;2022-12-05T09:36:04;30.33;;;18.55;;
5217;SDS011;26539;51.064;6.346;2022-12-05T09:38:30;37.40;;;19.63;;
5217;SDS011;26539;51.064;6.346;2022-12-05T09:43:47;26.38;;;18.65;;
5217;SDS011;26539;51.064;6.346;2022-12-05T09:49:02;31.70;;;19.27;;
5217;SDS011;26539;51.064;6.346;2022-12-05T09:51:29;29.85;;;18.25;;
5217;SDS011;26539;51.064;6.346;2022-12-05T09:53:56;28.08;;;18.85;;
5217;SDS011;26539;51.064;6.346;2022-12-05T09:56:26;31.90;;;21.33;;
5217;SDS011;26539;51.064;6.346;2022-12-05T09:58:53;34.97;;;21.73;;
5217;SDS011;26539;51.064;6.346;2022-12-05T10:01:40;36.25;;;22.40;;
5217;SDS011;26539;51.064;6.346;2022-12-05T10:06:56;33.10;;;21.08;;
5217;SDS011;26539;51.064;6.346;2022-12-05T10:10:01;34.80;;;22.30;;
5217;SDS011;26539;51.064;6.346;2022-12-05T10:16:05;31.27;;;21.23;;
5217;SDS011;26539;51.064;6.346;2022-12-05T10:23:45;37.90;;;23.50;;
5217;SDS011;26539;51.064;6.346;2022-12-05T10:26:19;35.38;;;21.90;;
5217;SDS011;26539;51.064;6.346;2022-12-05T10:31:21;33.20;;;22.75;;
5217;SDS011;26539;51.064;6.346;2022-12-05T10:33:59;34.55;;;22.88;;
5217;SDS011;26539;51.064;6.346;2022-12-05T10:36:33;34.20;;;21.48;;
5217;SDS011;26539;51.064;6.346;2022-12-05T10:38:59;31.03;;;20.67;;
5217;SDS011;26539;51.064;6.346;2022-12-05T10:41:25;36.07;;;22.10;;
5217;SDS011;26539;51.064;6.346;2022-12-05T10:43:52;34.20;;;24.20;;
5217;SDS011;26539;51.064;6.346;2022-12-05T10:46:18;38.13;;;20.70;;
5217;SDS011;26539;51.064;6.346;2022-12-05T10:48:44;32.33;;;19.47;;
5217;SDS011;26539;51.064;6.346;2022-12-05T10:51:12;27.07;;;18.07;;
5217;SDS011;26539;51.064;6.346;2022-12-05T10:53:48;25.67;;;17.27;;
5217;SDS011;26539;51.064;6.346;2022-12-05T10:59:07;22.00;;;15.85;;
5217;SDS011;26539;51.064;6.346;2022-12-05T11:01:34;21.77;;;16.20;;
5217;SDS011;26539;51.064;6.346;2022-12-05T11:04:09;21.55;;;16.13;;
5217;SDS011;26539;51.064;6.346;2022-12-05T11:09:25;28.33;;;18.83;;
5217;SDS011;26539;51.064;6.346;2022-12-05T11:17:35;27.13;;;18.40;;
5217;SDS011;26539;51.064;6.346;2022-12-05T11:20:27;25.23;;;18.08;;
5217;SDS011;26539;51.064;6.346;2022-12-05T11:22:49;28.42;;;18.08;;
5217;SDS011;26539;51.064;6.346;2022-12-05T11:28:00;25.48;;;17.33;;
5217;SDS011;26539;51.064;6.346;2022-12-05T11:31:27;21.13;;;15.38;;
5217;SDS011;26539;51.064;6.346;2022-12-05T11:33:36;25.30;;;17.25;;
5217;SDS011;26539;51.064;6.346;2022-12-05T11:36:10;23.33;;;17.60;;
5217;SDS011;26539;51.064;6.346;2022-12-05T11:38:44;23.67;;;17.65;;
5217;SDS011;26539;51.064;6.346;2022-12-05T11:44:16;22.40;;;17.08;;
5217;SDS011;26539;51.064;6.346;2022-12-05T11:46:57;25.00;;;16.77;;
5217;SDS011;26539;51.064;6.346;2022-12-05T11:49:43;25.23;;;17.65;;
5217;SDS011;26539;51.064;6.346;2022-12-05T11:55:19;25.45;;;17.30;;
5217;SDS011;26539;51.064;6.346;2022-12-05T12:08:24;19.83;;;14.40;;
5217;SDS011;26539;51.064;6.346;2022-12-05T12:11:00;22.17;;;15.85;;
5217;SDS011;26539;51.064;6.346;2022-12-05T12:13:53;20.85;;;17.00;;
5217;SDS011;26539;51.064;6.346;2022-12-05T12:21:57;20.40;;;15.48;;
5217;SDS011;26539;51.064;6.346;2022-12-05T12:24:52;21.77;;;15.30;;
5217;SDS011;26539;51.064;6.346;2022-12-05T12:27:42;20.92;;;14.90;;
5217;SDS011;26539;51.064;6.346;2022-12-05T12:30:35;20.80;;;16.55;;
5217;SDS011;26539;51.064;6.346;2022-12-05T12:44:22;19.00;;;14.45;;
5217;SDS011;26539;51.064;6.346;2022-12-05T12:46:56;19.52;;;14.80;;
5217;SDS011;26539;51.064;6.346;2022-12-05T12:49:34;22.02;;;16.13;;
5217;SDS011;26539;51.064;6.346;2022-12-05T12:52:21;24.50;;;15.55;;
5217;SDS011;26539;51.064;6.346;2022-12-05T13:00:10;20.80;;;15.65;;
5217;SDS011;26539;51.064;6.346;2022-12-05T13:05:35;21.73;;;15.90;;
5217;SDS011;26539;51.064;6.346;2022-12-05T13:08:19;19.58;;;15.25;;
5217;SDS011;26539;51.064;6.346;2022-12-05T13:11:02;16.63;;;12.95;;
5217;SDS011;26539;51.064;6.346;2022-12-05T13:13:35;21.60;;;15.15;;
5217;SDS011;26539;51.064;6.346;2022-12-05T13:16:05;19.77;;;15.20;;
5217;SDS011;26539;51.064;6.346;2022-12-05T13:18:35;19.83;;;15.38;;
5217;SDS011;26539;51.064;6.346;2022-12-05T13:21:04;19.20;;;15.67;;
5217;SDS011;26539;51.064;6.346;2022-12-05T13:23:34;18.67;;;14.63;;
5217;SDS011;26539;51.064;6.346;2022-12-05T13:26:10;17.83;;;13.98;;
5217;SDS011;26539;51.064;6.346;2022-12-05T13:28:46;17.67;;;14.40;;
5217;SDS011;26539;51.064;6.346;2022-12-05T13:31:19;18.23;;;15.57;;
5217;SDS011;26539;51.064;6.346;2022-12-05T13:36:58;18.52;;;15.63;;
5217;SDS011;26539;51.064;6.346;2022-12-05T13:39:52;21.05;;;15.35;;
5217;SDS011;26539;51.064;6.346;2022-12-05T13:42:39;23.65;;;16.73;;
5217;SDS011;26539;51.064;6.346;2022-12-05T13:45:07;21.88;;;15.57;;
5217;SDS011;26539;51.064;6.346;2022-12-05T13:52:49;20.45;;;17.05;;
5217;SDS011;26539;51.064;6.346;2022-12-05T13:55:21;21.70;;;15.00;;
5217;SDS011;26539;51.064;6.346;2022-12-05T13:57:59;19.38;;;14.65;;
5217;SDS011;26539;51.064;6.346;2022-12-05T14:00:41;21.02;;;15.45;;
5217;SDS011;26539;51.064;6.346;2022-12-05T14:03:14;16.30;;;13.10;;
5217;SDS011;26539;51.064;6.346;2022-12-05T14:05:46;17.92;;;14.35;;
5217;SDS011;26539;51.064;6.346;2022-12-05T14:15:46;20.57;;;15.67;;
5217;SDS011;26539;51.064;6.346;2022-12-05T14:18:33;23.40;;;18.35;;
5217;SDS011;26539;51.064;6.346;2022-12-05T14:23:52;18.58;;;15.55;;
5217;SDS011;26539;51.064;6.346;2022-12-05T14:26:29;15.90;;;13.95;;
5217;SDS011;26539;51.064;6.346;2022-12-05T14:29:32;16.95;;;14.52;;
5217;SDS011;26539;51.064;6.346;2022-12-05T14:32:27;16.65;;;14.73;;
5217;SDS011;26539;51.064;6.346;2022-12-05T14:35:14;21.13;;;14.30;;
5217;SDS011;26539;51.064;6.346;2022-12-05T14:37:53;15.75;;;13.15;;
5217;SDS011;26539;51.064;6.346;2022-12-05T14:43:16;20.38;;;15.18;;
5217;SDS011;26539;51.064;6.346;2022-12-05T14:51:00;15.18;;;12.75;;
5217;SDS011;26539;51.064;6.346;2022-12-05T14:53:29;14.60;;;11.77;;
5217;SDS011;26539;51.064;6.346;2022-12-05T15:01:34;14.70;;;12.43;;
5217;SDS011;26539;51.064;6.346;2022-12-05T15:04:14;13.63;;;11.25;;
5217;SDS011;26539;51.064;6.346;2022-12-05T15:06:49;16.48;;;13.43;;
5217;SDS011;26539;51.064;6.346;2022-12-05T15:12:22;13.63;;;11.63;;
5217;SDS011;26539;51.064;6.346;2022-12-05T15:15:10;14.35;;;11.85;;
5217;SDS011;26539;51.064;6.346;2022-12-05T15:20:17;13.85;;;11.05;;
5217;SDS011;26539;51.064;6.346;2022-12-05T15:22:53;14.60;;;11.07;;
5217;SDS011;26539;51.064;6.346;2022-12-05T15:25:20;12.93;;;10.50;;
5217;SDS011;26539;51.064;6.346;2022-12-05T15:27:59;14.32;;;10.85;;
5217;SDS011;26539;51.064;6.346;2022-12-05T15:30:27;12.70;;;10.10;;
5217;SDS011;26539;51.064;6.346;2022-12-05T15:32:54;14.30;;;11.48;;
5217;SDS011;26539;51.064;6.346;2022-12-05T15:35:19;14.63;;;12.60;;
5217;SDS011;26539;51.064;6.346;2022-12-05T15:40:23;16.40;;;13.57;;
5217;SDS011;26539;51.064;6.346;2022-12-05T15:42:53;15.95;;;13.48;;
5217;SDS011;26539;51.064;6.346;2022-12-05T15:45:24;19.08;;;14.85;;
5217;SDS011;26539;51.064;6.346;2022-12-05T15:50:32;19.77;;;16.50;;
5217;SDS011;26539;51.064;6.346;2022-12-05T15:58:30;20.17;;;16.35;;
5217;SDS011;26539;51.064;6.346;2022-12-05T16:01:17;20.80;;;15.75;;
5217;SDS011;26539;51.064;6.346;2022-12-05T16:06:16;22.30;;;16.95;;
5217;SDS011;26539;51.064;6.346;2022-12-05T16:08:46;18.05;;;14.90;;
5217;SDS011;26539;51.064;6.346;2022-12-05T16:11:13;18.17;;;15.38;;
5217;SDS011;26539;51.064;6.346;2022-12-05T16:13:47;17.98;;;15.40;;
5217;SDS011;26539;51.064;6.346;2022-12-05T16:16:16;19.10;;;14.70;;
5217;SDS011;26539;51.064;6.346;2022-12-05T16:18:49;20.58;;;15.43;;
5217;SDS011;26539;51.064;6.346;2022-12-05T16:21:31;20.80;;;15.68;;
5217;SDS011;26539;51.064;6.346;2022-12-05T16:24:12;17.95;;;14.48;;
5217;SDS011;26539;51.064;6.346;2022-12-05T16:27:05;20.65;;;14.93;;
5217;SDS011;26539;51.064;6.346;2022-12-05T16:29:38;22.70;;;15.20;;
5217;SDS011;26539;51.064;6.346;2022-12-05T16:32:11;17.57;;;13.73;;
5217;SDS011;26539;51.064;6.346;2022-12-05T16:34:48;17.40;;;14.50;;
5217;SDS011;26539;51.064;6.346;2022-12-05T16:37:23;18.53;;;14.80;;
5217;SDS011;26539;51.064;6.346;2022-12-05T16:39:50;17.10;;;13.82;;
5217;SDS011;26539;51.064;6.346;2022-12-05T16:42:27;16.10;;;13.77;;
5217;SDS011;26539;51.064;6.346;2022-12-05T17:49:02;15.20;;;11.67;;
5217;SDS011;26539;51.064;6.346;2022-12-05T17:51:36;16.45;;;12.68;;
5217;SDS011;26539;51.064;6.346;2022-12-05T17:54:02;14.10;;;11.20;;
5217;SDS011;26539;51.064;6.346;2022-12-05T17:56:27;17.20;;;12.00;;
5217;SDS011;26539;51.064;6.346;2022-12-05T17:58:53;18.80;;;13.20;;
5217;SDS011;26539;51.064;6.346;2022-12-05T18:01:19;27.47;;;15.37;;
5217;SDS011;26539;51.064;6.346;2022-12-05T18:03:44;24.27;;;15.30;;
5217;SDS011;26539;51.064;6.346;2022-12-05T18:06:11;21.85;;;13.73;;
5217;SDS011;26539;51.064;6.346;2022-12-05T18:08:36;18.33;;;14.30;;
5217;SDS011;26539;51.064;6.346;2022-12-05T18:11:04;15.63;;;12.48;;
5217;SDS011;26539;51.064;6.346;2022-12-05T18:13:29;17.20;;;13.43;;
5217;SDS011;26539;51.064;6.346;2022-12-05T18:15:55;18.80;;;12.83;;
5217;SDS011;26539;51.064;6.346;2022-12-05T18:18:22;13.25;;;10.82;;
5217;SDS011;26539;51.064;6.346;2022-12-05T18:20:47;14.90;;;12.73;;
5217;SDS011;26539;51.064;6.346;2022-12-05T18:23:13;17.70;;;13.33;;
5217;SDS011;26539;51.064;6.346;2022-12-05T18:25:39;17.97;;;12.80;;
5217;SDS011;26539;51.064;6.346;2022-12-05T18:28:05;17.33;;;13.73;;
5217;SDS011;26539;51.064;6.346;2022-12-05T18:30:31;20.20;;;14.17;;
5217;SDS011;26539;51.064;6.346;2022-12-05T18:32:56;19.00;;;13.67;;
5217;SDS011;26539;51.064;6.346;2022-12-05T18:35:22;19.63;;;14.77;;
5217;SDS011;26539;51.064;6.346;2022-12-05T18:38:04;18.38;;;13.50;;